sensor_id;sensor_type;location;lat;lon;timestamp;temperature;humidity
81842;DHT22;71284;50.918;7.092;2024-01-15T00:02:14;4.20;58.00
81842;DHT22;71284;50.918;7.092;2024-01-15T00:04:40;4.40;57.70
81842;DHT22;71284;50.918;7.092;2024-01-15T00:07:08;4.10;58.10
81842;DHT22;71284;50.918;7.092;2024-01-15T00:09:34;3.90;60.50
81842;DHT22;71284;50.918;7.092;2024-01-15T00:12:00;4.00;60.20
81842;DHT22;71284;50.918;7.092;2024-01-15T00:14:27;3.80;60.90
81842;DHT22;71284;50.918;7.092;2024-01-15T00:16:54;3.90;61.80
81842;DHT22;71284;50.918;7.092;2024-01-15T00:19:21;3.90;61.60
81842;DHT22;71284;50.918;7.092;2024-01-15T00:21:48;3.90;61.80
81842;DHT22;71284;50.918;7.092;2024-01-15T00:24:14;4.00;61.20
81842;DHT22;71284;50.918;7.092;2024-01-15T00:26:41;4.00;61.00
81842;DHT22;71284;50.918;7.092;2024-01-15T00:29:08;4.00;60.70
81842;DHT22;71284;50.918;7.092;2024-01-15T00:31:34;3.90;60.40
81842;DHT22;71284;50.918;7.092;2024-01-15T00:34:01;3.80;61.50
81842;DHT22;71284;50.918;7.092;2024-01-15T00:36:28;3.80;61.80
81842;DHT22;71284;50.918;7.092;2024-01-15T00:38:54;3.80;62.20
81842;DHT22;71284;50.918;7.092;2024-01-15T00:41:21;3.80;62.10
81842;DHT22;71284;50.918;7.092;2024-01-15T00:43:47;3.70;62.50
81842;DHT22;71284;50.918;7.092;2024-01-15T00:46:16;3.60;62.80
81842;DHT22;71284;50.918;7.092;2024-01-15T00:48:42;3.80;62.80
81842;DHT22;71284;50.918;7.092;2024-01-15T00:51:09;3.70;63.20
81842;DHT22;71284;50.918;7.092;2024-01-15T00:53:35;3.50;63.40
81842;DHT22;71284;50.918;7.092;2024-01-15T00:56:02;3.50;63.70
81842;DHT22;71284;50.918;7.092;2024-01-15T00:58:29;3.40;64.00
81842;DHT22;71284;50.918;7.092;2024-01-15T01:00:55;3.30;64.60
81842;DHT22;71284;50.918;7.092;2024-01-15T01:03:22;3.40;64.40
81842;DHT22;71284;50.918;7.092;2024-01-15T01:05:48;3.30;64.10
81842;DHT22;71284;50.918;7.092;2024-01-15T01:08:15;3.40;64.40
81842;DHT22;71284;50.918;7.092;2024-01-15T01:10:41;3.40;64.30
81842;DHT22;71284;50.918;7.092;2024-01-15T01:13:09;3.50;64.30
81842;DHT22;71284;50.918;7.092;2024-01-15T01:15:36;3.60;63.50
81842;DHT22;71284;50.918;7.092;2024-01-15T01:18:02;3.60;63.70
81842;DHT22;71284;50.918;7.092;2024-01-15T01:20:30;3.50;63.30
81842;DHT22;71284;50.918;7.092;2024-01-15T01:22:56;3.60;63.60
81842;DHT22;71284;50.918;7.092;2024-01-15T01:25:23;3.40;63.70
81842;DHT22;71284;50.918;7.092;2024-01-15T01:27:49;3.50;64.00
81842;DHT22;71284;50.918;7.092;2024-01-15T01:30:16;3.70;63.90
81842;DHT22;71284;50.918;7.092;2024-01-15T01:32:42;3.70;63.30
81842;DHT22;71284;50.918;7.092;2024-01-15T01:35:09;3.70;63.60
81842;DHT22;71284;50.918;7.092;2024-01-15T01:37:36;3.70;63.60
81842;DHT22;71284;50.918;7.092;2024-01-15T01:40:02;3.70;63.60
81842;DHT22;71284;50.918;7.092;2024-01-15T01:42:29;3.70;63.50
81842;DHT22;71284;50.918;7.092;2024-01-15T01:44:56;3.50;63.70
81842;DHT22;71284;50.918;7.092;2024-01-15T01:47:22;3.50;64.10
81842;DHT22;71284;50.918;7.092;2024-01-15T01:49:49;3.40;64.50
81842;DHT22;71284;50.918;7.092;2024-01-15T01:52:15;3.70;63.80
81842;DHT22;71284;50.918;7.092;2024-01-15T01:54:42;3.70;63.40
81842;DHT22;71284;50.918;7.092;2024-01-15T01:57:08;3.70;63.40
81842;DHT22;71284;50.918;7.092;2024-01-15T01:59:35;3.80;63.60
81842;DHT22;71284;50.918;7.092;2024-01-15T02:02:02;3.80;63.70
81842;DHT22;71284;50.918;7.092;2024-01-15T02:04:28;3.90;62.90
81842;DHT22;71284;50.918;7.092;2024-01-15T02:06:55;3.80;63.40
81842;DHT22;71284;50.918;7.092;2024-01-15T02:09:21;3.80;62.70
81842;DHT22;71284;50.918;7.092;2024-01-15T02:11:48;3.80;63.00
81842;DHT22;71284;50.918;7.092;2024-01-15T02:14:15;3.80;63.40
81842;DHT22;71284;50.918;7.092;2024-01-15T02:16:41;3.70;63.00
81842;DHT22;71284;50.918;7.092;2024-01-15T02:19:14;3.80;62.80
81842;DHT22;71284;50.918;7.092;2024-01-15T02:21:34;3.90;62.60
81842;DHT22;71284;50.918;7.092;2024-01-15T02:24:01;4.00;62.20
81842;DHT22;71284;50.918;7.092;2024-01-15T02:26:28;4.00;62.20
81842;DHT22;71284;50.918;7.092;2024-01-15T02:28:54;4.00;61.70
81842;DHT22;71284;50.918;7.092;2024-01-15T02:31:21;4.00;62.40
81842;DHT22;71284;50.918;7.092;2024-01-15T02:33:47;4.10;61.70
81842;DHT22;71284;50.918;7.092;2024-01-15T02:36:14;4.00;62.00
81842;DHT22;71284;50.918;7.092;2024-01-15T02:38:41;4.00;62.10
81842;DHT22;71284;50.918;7.092;2024-01-15T02:41:07;3.80;62.70
81842;DHT22;71284;50.918;7.092;2024-01-15T02:43:34;3.90;62.40
81842;DHT22;71284;50.918;7.092;2024-01-15T02:46:00;3.80;63.60
81842;DHT22;71284;50.918;7.092;2024-01-15T02:48:27;3.90;63.40
81842;DHT22;71284;50.918;7.092;2024-01-15T02:50:53;3.70;63.70
81842;DHT22;71284;50.918;7.092;2024-01-15T02:53:20;3.70;63.10
81842;DHT22;71284;50.918;7.092;2024-01-15T02:55:47;3.70;63.30
81842;DHT22;71284;50.918;7.092;2024-01-15T02:58:14;3.50;63.50
81842;DHT22;71284;50.918;7.092;2024-01-15T03:00:41;3.50;63.90
81842;DHT22;71284;50.918;7.092;2024-01-15T03:03:07;3.70;64.00
81842;DHT22;71284;50.918;7.092;2024-01-15T03:05:34;3.80;63.40
81842;DHT22;71284;50.918;7.092;2024-01-15T03:08:00;3.90;62.20
81842;DHT22;71284;50.918;7.092;2024-01-15T03:10:27;3.90;62.10
81842;DHT22;71284;50.918;7.092;2024-01-15T03:12:54;4.00;61.60
81842;DHT22;71284;50.918;7.092;2024-01-15T03:15:20;3.90;62.40
81842;DHT22;71284;50.918;7.092;2024-01-15T03:17:47;3.90;62.00
81842;DHT22;71284;50.918;7.092;2024-01-15T03:20:13;4.00;62.40
81842;DHT22;71284;50.918;7.092;2024-01-15T03:22:40;3.80;62.20
81842;DHT22;71284;50.918;7.092;2024-01-15T03:25:07;3.90;62.10
81842;DHT22;71284;50.918;7.092;2024-01-15T03:27:33;3.90;61.70
81842;DHT22;71284;50.918;7.092;2024-01-15T03:30:00;4.20;61.30
81842;DHT22;71284;50.918;7.092;2024-01-15T03:32:26;4.10;60.60
81842;DHT22;71284;50.918;7.092;2024-01-15T03:34:53;4.20;61.00
81842;DHT22;71284;50.918;7.092;2024-01-15T03:37:19;4.10;61.30
81842;DHT22;71284;50.918;7.092;2024-01-15T03:39:46;4.20;60.50
81842;DHT22;71284;50.918;7.092;2024-01-15T03:42:13;4.30;60.20
81842;DHT22;71284;50.918;7.092;2024-01-15T03:44:39;4.30;60.00
81842;DHT22;71284;50.918;7.092;2024-01-15T03:47:06;4.20;60.70
81842;DHT22;71284;50.918;7.092;2024-01-15T03:49:32;4.20;61.00
81842;DHT22;71284;50.918;7.092;2024-01-15T03:51:59;4.20;60.70
81842;DHT22;71284;50.918;7.092;2024-01-15T03:54:26;4.30;60.30
81842;DHT22;71284;50.918;7.092;2024-01-15T03:56:52;4.30;59.80
81842;DHT22;71284;50.918;7.092;2024-01-15T03:59:19;4.20;60.10
81842;DHT22;71284;50.918;7.092;2024-01-15T04:01:49;4.10;60.50
81842;DHT22;71284;50.918;7.092;2024-01-15T04:04:15;4.10;60.80
81842;DHT22;71284;50.918;7.092;2024-01-15T04:06:41;4.10;60.60
81842;DHT22;71284;50.918;7.092;2024-01-15T04:09:08;4.30;60.60
81842;DHT22;71284;50.918;7.092;2024-01-15T04:11:35;4.10;61.00
81842;DHT22;71284;50.918;7.092;2024-01-15T04:14:01;4.20;60.50
81842;DHT22;71284;50.918;7.092;2024-01-15T04:16:28;4.40;60.30
81842;DHT22;71284;50.918;7.092;2024-01-15T04:18:54;4.40;60.10
81842;DHT22;71284;50.918;7.092;2024-01-15T04:21:21;4.40;60.00
81842;DHT22;71284;50.918;7.092;2024-01-15T04:23:47;4.40;60.90
81842;DHT22;71284;50.918;7.092;2024-01-15T04:26:14;4.20;60.90
81842;DHT22;71284;50.918;7.092;2024-01-15T04:28:41;4.20;60.80
81842;DHT22;71284;50.918;7.092;2024-01-15T04:31:07;4.30;60.70
81842;DHT22;71284;50.918;7.092;2024-01-15T04:33:34;4.30;60.40
81842;DHT22;71284;50.918;7.092;2024-01-15T04:36:02;4.30;61.00
81842;DHT22;71284;50.918;7.092;2024-01-15T04:38:28;4.20;60.80
81842;DHT22;71284;50.918;7.092;2024-01-15T04:40:54;4.40;60.70
81842;DHT22;71284;50.918;7.092;2024-01-15T04:43:21;4.40;59.60
81842;DHT22;71284;50.918;7.092;2024-01-15T04:45:48;4.40;60.40
81842;DHT22;71284;50.918;7.092;2024-01-15T04:48:14;4.50;59.90
81842;DHT22;71284;50.918;7.092;2024-01-15T04:50:41;4.50;59.70
81842;DHT22;71284;50.918;7.092;2024-01-15T04:53:07;4.70;59.50
81842;DHT22;71284;50.918;7.092;2024-01-15T04:55:34;4.60;59.90
81842;DHT22;71284;50.918;7.092;2024-01-15T04:58:00;4.70;59.50
81842;DHT22;71284;50.918;7.092;2024-01-15T05:00:27;4.80;59.10
81842;DHT22;71284;50.918;7.092;2024-01-15T05:02:54;4.90;58.70
81842;DHT22;71284;50.918;7.092;2024-01-15T05:05:20;5.00;58.60
81842;DHT22;71284;50.918;7.092;2024-01-15T05:07:47;4.90;58.70
81842;DHT22;71284;50.918;7.092;2024-01-15T05:10:13;4.90;58.70
81842;DHT22;71284;50.918;7.092;2024-01-15T05:12:40;4.80;58.80
81842;DHT22;71284;50.918;7.092;2024-01-15T05:15:07;4.80;59.10
81842;DHT22;71284;50.918;7.092;2024-01-15T05:17:33;4.80;58.70
81842;DHT22;71284;50.918;7.092;2024-01-15T05:20:00;4.70;59.50
81842;DHT22;71284;50.918;7.092;2024-01-15T05:22:26;4.90;59.10
81842;DHT22;71284;50.918;7.092;2024-01-15T05:24:53;4.80;59.10
81842;DHT22;71284;50.918;7.092;2024-01-15T05:27:20;4.80;59.50
81842;DHT22;71284;50.918;7.092;2024-01-15T05:29:46;4.80;59.00
81842;DHT22;71284;50.918;7.092;2024-01-15T05:32:13;4.90;59.30
81842;DHT22;71284;50.918;7.092;2024-01-15T05:34:39;4.90;59.00
81842;DHT22;71284;50.918;7.092;2024-01-15T05:37:06;4.90;59.40
81842;DHT22;71284;50.918;7.092;2024-01-15T05:39:33;5.00;58.50
81842;DHT22;71284;50.918;7.092;2024-01-15T05:41:59;5.10;58.70
81842;DHT22;71284;50.918;7.092;2024-01-15T05:44:26;5.00;58.60
81842;DHT22;71284;50.918;7.092;2024-01-15T05:46:53;5.00;58.50
81842;DHT22;71284;50.918;7.092;2024-01-15T05:49:19;5.00;58.60
81842;DHT22;71284;50.918;7.092;2024-01-15T05:51:46;5.20;58.60
81842;DHT22;71284;50.918;7.092;2024-01-15T05:54:12;5.10;58.60
81842;DHT22;71284;50.918;7.092;2024-01-15T05:56:39;4.90;58.90
81842;DHT22;71284;50.918;7.092;2024-01-15T05:59:05;5.00;59.20
81842;DHT22;71284;50.918;7.092;2024-01-15T06:01:32;5.00;58.70
81842;DHT22;71284;50.918;7.092;2024-01-15T06:03:58;4.60;60.30
81842;DHT22;71284;50.918;7.092;2024-01-15T06:06:25;4.50;61.10
81842;DHT22;71284;50.918;7.092;2024-01-15T06:08:52;4.40;61.30
81842;DHT22;71284;50.918;7.092;2024-01-15T06:11:18;4.50;60.80
81842;DHT22;71284;50.918;7.092;2024-01-15T06:13:45;4.50;61.20
81842;DHT22;71284;50.918;7.092;2024-01-15T06:16:13;4.50;61.00
81842;DHT22;71284;50.918;7.092;2024-01-15T06:18:38;4.70;60.60
81842;DHT22;71284;50.918;7.092;2024-01-15T06:21:05;4.80;60.10
81842;DHT22;71284;50.918;7.092;2024-01-15T06:23:31;4.80;59.90
81842;DHT22;71284;50.918;7.092;2024-01-15T06:25:58;4.90;60.10
81842;DHT22;71284;50.918;7.092;2024-01-15T06:28:24;4.90;60.20
81842;DHT22;71284;50.918;7.092;2024-01-15T06:30:51;4.70;59.90
81842;DHT22;71284;50.918;7.092;2024-01-15T06:33:18;4.60;60.50
81842;DHT22;71284;50.918;7.092;2024-01-15T06:35:44;4.70;60.50
81842;DHT22;71284;50.918;7.092;2024-01-15T06:38:11;4.60;60.30
81842;DHT22;71284;50.918;7.092;2024-01-15T06:40:37;4.60;60.30
81842;DHT22;71284;50.918;7.092;2024-01-15T06:43:04;4.70;60.50
81842;DHT22;71284;50.918;7.092;2024-01-15T06:45:30;4.70;61.10
81842;DHT22;71284;50.918;7.092;2024-01-15T06:47:57;4.60;60.30
81842;DHT22;71284;50.918;7.092;2024-01-15T06:50:24;4.70;60.30
81842;DHT22;71284;50.918;7.092;2024-01-15T06:52:50;4.80;60.20
81842;DHT22;71284;50.918;7.092;2024-01-15T06:55:17;4.90;59.80
81842;DHT22;71284;50.918;7.092;2024-01-15T06:57:43;4.70;60.30
81842;DHT22;71284;50.918;7.092;2024-01-15T07:00:10;4.80;60.10
81842;DHT22;71284;50.918;7.092;2024-01-15T07:02:37;4.90;59.70
81842;DHT22;71284;50.918;7.092;2024-01-15T07:05:04;4.70;60.10
81842;DHT22;71284;50.918;7.092;2024-01-15T07:07:30;4.40;61.40
81842;DHT22;71284;50.918;7.092;2024-01-15T07:09:57;4.60;61.40
81842;DHT22;71284;50.918;7.092;2024-01-15T07:12:23;4.70;60.70
81842;DHT22;71284;50.918;7.092;2024-01-15T07:14:50;4.50;61.60
81842;DHT22;71284;50.918;7.092;2024-01-15T07:17:17;4.40;61.90
81842;DHT22;71284;50.918;7.092;2024-01-15T07:19:43;4.50;62.10
81842;DHT22;71284;50.918;7.092;2024-01-15T07:22:10;4.60;62.10
81842;DHT22;71284;50.918;7.092;2024-01-15T07:24:36;4.70;61.80
81842;DHT22;71284;50.918;7.092;2024-01-15T07:27:03;4.60;61.20
81842;DHT22;71284;50.918;7.092;2024-01-15T07:29:30;4.60;61.20
81842;DHT22;71284;50.918;7.092;2024-01-15T07:31:56;4.80;61.20
81842;DHT22;71284;50.918;7.092;2024-01-15T07:34:23;4.80;60.40
81842;DHT22;71284;50.918;7.092;2024-01-15T07:36:49;4.80;60.50
81842;DHT22;71284;50.918;7.092;2024-01-15T07:39:16;4.90;60.50
81842;DHT22;71284;50.918;7.092;2024-01-15T07:41:43;4.80;60.70
81842;DHT22;71284;50.918;7.092;2024-01-15T07:44:09;4.90;60.60
81842;DHT22;71284;50.918;7.092;2024-01-15T07:46:36;4.90;60.20
81842;DHT22;71284;50.918;7.092;2024-01-15T07:49:02;4.90;60.60
81842;DHT22;71284;50.918;7.092;2024-01-15T07:51:29;4.90;60.30
81842;DHT22;71284;50.918;7.092;2024-01-15T07:53:56;4.80;60.40
81842;DHT22;71284;50.918;7.092;2024-01-15T07:56:22;4.80;60.60
81842;DHT22;71284;50.918;7.092;2024-01-15T07:58:49;4.90;60.80
81842;DHT22;71284;50.918;7.092;2024-01-15T08:01:16;5.00;60.50
81842;DHT22;71284;50.918;7.092;2024-01-15T08:03:43;5.10;60.00
81842;DHT22;71284;50.918;7.092;2024-01-15T08:06:09;5.00;60.60
81842;DHT22;71284;50.918;7.092;2024-01-15T08:08:36;5.00;59.60
81842;DHT22;71284;50.918;7.092;2024-01-15T08:11:03;4.90;60.00
81842;DHT22;71284;50.918;7.092;2024-01-15T08:13:29;4.70;61.20
81842;DHT22;71284;50.918;7.092;2024-01-15T08:15:56;4.90;60.70
81842;DHT22;71284;50.918;7.092;2024-01-15T08:18:23;5.00;60.00
81842;DHT22;71284;50.918;7.092;2024-01-15T08:20:49;5.10;59.40
81842;DHT22;71284;50.918;7.092;2024-01-15T08:23:16;5.30;59.40
81842;DHT22;71284;50.918;7.092;2024-01-15T08:25:42;5.30;58.70
81842;DHT22;71284;50.918;7.092;2024-01-15T08:28:09;5.30;59.10
81842;DHT22;71284;50.918;7.092;2024-01-15T08:30:35;5.20;59.10
81842;DHT22;71284;50.918;7.092;2024-01-15T08:33:02;5.30;58.50
81842;DHT22;71284;50.918;7.092;2024-01-15T08:35:29;5.40;58.20
81842;DHT22;71284;50.918;7.092;2024-01-15T08:37:55;5.40;58.20
81842;DHT22;71284;50.918;7.092;2024-01-15T08:40:22;5.40;58.10
81842;DHT22;71284;50.918;7.092;2024-01-15T08:42:48;5.20;57.90
81842;DHT22;71284;50.918;7.092;2024-01-15T08:45:15;5.10;59.00
81842;DHT22;71284;50.918;7.092;2024-01-15T08:47:42;5.10;59.10
81842;DHT22;71284;50.918;7.092;2024-01-15T08:50:08;5.20;59.30
81842;DHT22;71284;50.918;7.092;2024-01-15T08:52:35;5.10;59.30
81842;DHT22;71284;50.918;7.092;2024-01-15T08:55:01;5.20;59.10
81842;DHT22;71284;50.918;7.092;2024-01-15T08:57:28;5.10;58.70
81842;DHT22;71284;50.918;7.092;2024-01-15T08:59:55;4.90;58.80
81842;DHT22;71284;50.918;7.092;2024-01-15T09:02:21;4.90;59.60
81842;DHT22;71284;50.918;7.092;2024-01-15T09:04:48;5.20;58.90
81842;DHT22;71284;50.918;7.092;2024-01-15T09:07:14;5.20;58.40
81842;DHT22;71284;50.918;7.092;2024-01-15T09:09:41;4.90;58.60
81842;DHT22;71284;50.918;7.092;2024-01-15T09:12:08;5.00;59.30
81842;DHT22;71284;50.918;7.092;2024-01-15T09:14:34;4.80;59.70
81842;DHT22;71284;50.918;7.092;2024-01-15T09:17:01;4.90;59.80
81842;DHT22;71284;50.918;7.092;2024-01-15T09:19:27;5.00;59.10
81842;DHT22;71284;50.918;7.092;2024-01-15T09:21:54;5.10;59.80
81842;DHT22;71284;50.918;7.092;2024-01-15T09:24:21;5.10;58.10
81842;DHT22;71284;50.918;7.092;2024-01-15T09:26:47;5.00;59.20
81842;DHT22;71284;50.918;7.092;2024-01-15T09:29:14;5.00;58.70
81842;DHT22;71284;50.918;7.092;2024-01-15T09:31:40;4.90;59.80
81842;DHT22;71284;50.918;7.092;2024-01-15T09:34:07;4.80;59.80
81842;DHT22;71284;50.918;7.092;2024-01-15T09:36:38;4.70;60.30
81842;DHT22;71284;50.918;7.092;2024-01-15T09:39:00;4.60;61.00
81842;DHT22;71284;50.918;7.092;2024-01-15T09:41:27;4.70;61.60
81842;DHT22;71284;50.918;7.092;2024-01-15T09:43:53;4.50;61.00
81842;DHT22;71284;50.918;7.092;2024-01-15T09:46:20;4.60;61.20
81842;DHT22;71284;50.918;7.092;2024-01-15T09:48:46;4.50;61.50
81842;DHT22;71284;50.918;7.092;2024-01-15T09:51:13;4.60;61.40
81842;DHT22;71284;50.918;7.092;2024-01-15T09:53:40;4.50;62.50
81842;DHT22;71284;50.918;7.092;2024-01-15T09:56:06;4.40;62.20
81842;DHT22;71284;50.918;7.092;2024-01-15T09:58:33;4.40;62.80
81842;DHT22;71284;50.918;7.092;2024-01-15T10:00:59;4.60;62.10
81842;DHT22;71284;50.918;7.092;2024-01-15T10:03:26;4.30;61.90
81842;DHT22;71284;50.918;7.092;2024-01-15T10:05:53;4.30;62.80
81842;DHT22;71284;50.918;7.092;2024-01-15T10:08:19;4.20;63.00
81842;DHT22;71284;50.918;7.092;2024-01-15T10:10:46;4.20;63.20
81842;DHT22;71284;50.918;7.092;2024-01-15T10:13:12;4.30;63.40
81842;DHT22;71284;50.918;7.092;2024-01-15T10:15:39;4.10;63.60
81842;DHT22;71284;50.918;7.092;2024-01-15T10:18:06;4.10;63.40
81842;DHT22;71284;50.918;7.092;2024-01-15T10:20:32;4.10;64.00
81842;DHT22;71284;50.918;7.092;2024-01-15T10:22:59;4.10;63.80
81842;DHT22;71284;50.918;7.092;2024-01-15T10:25:25;4.10;64.50
81842;DHT22;71284;50.918;7.092;2024-01-15T10:28:00;4.20;63.50
81842;DHT22;71284;50.918;7.092;2024-01-15T10:30:26;4.30;63.50
81842;DHT22;71284;50.918;7.092;2024-01-15T10:33:01;4.40;63.40
81842;DHT22;71284;50.918;7.092;2024-01-15T10:35:28;4.10;63.30
81842;DHT22;71284;50.918;7.092;2024-01-15T10:37:53;3.90;64.10
81842;DHT22;71284;50.918;7.092;2024-01-15T10:40:20;3.80;64.40
81842;DHT22;71284;50.918;7.092;2024-01-15T10:42:47;3.90;64.50
81842;DHT22;71284;50.918;7.092;2024-01-15T10:45:14;4.00;64.50
81842;DHT22;71284;50.918;7.092;2024-01-15T10:47:40;4.00;63.70
81842;DHT22;71284;50.918;7.092;2024-01-15T10:50:07;4.00;64.00
81842;DHT22;71284;50.918;7.092;2024-01-15T10:52:35;4.10;63.90
81842;DHT22;71284;50.918;7.092;2024-01-15T10:55:03;4.30;64.10
81842;DHT22;71284;50.918;7.092;2024-01-15T10:57:30;4.30;62.90
81842;DHT22;71284;50.918;7.092;2024-01-15T10:59:57;4.30;63.00
81842;DHT22;71284;50.918;7.092;2024-01-15T11:02:23;4.20;63.40
81842;DHT22;71284;50.918;7.092;2024-01-15T11:04:50;4.30;63.00
81842;DHT22;71284;50.918;7.092;2024-01-15T11:07:16;4.20;63.40
81842;DHT22;71284;50.918;7.092;2024-01-15T11:09:43;3.90;63.80
81842;DHT22;71284;50.918;7.092;2024-01-15T11:12:10;3.90;64.40
81842;DHT22;71284;50.918;7.092;2024-01-15T11:14:40;4.00;64.40
81842;DHT22;71284;50.918;7.092;2024-01-15T11:17:06;4.00;64.60
81842;DHT22;71284;50.918;7.092;2024-01-15T11:19:36;4.00;64.50
81842;DHT22;71284;50.918;7.092;2024-01-15T11:22:02;4.10;64.50
81842;DHT22;71284;50.918;7.092;2024-01-15T11:24:37;4.40;63.60
81842;DHT22;71284;50.918;7.092;2024-01-15T11:27:03;4.40;63.30
81842;DHT22;71284;50.918;7.092;2024-01-15T11:29:34;4.40;63.50
81842;DHT22;71284;50.918;7.092;2024-01-15T11:32:02;4.40;63.10
81842;DHT22;71284;50.918;7.092;2024-01-15T11:37:06;4.30;63.10
81842;DHT22;71284;50.918;7.092;2024-01-15T11:39:40;4.30;63.90
81842;DHT22;71284;50.918;7.092;2024-01-15T11:42:06;4.40;62.80
81842;DHT22;71284;50.918;7.092;2024-01-15T11:44:33;4.10;63.50
81842;DHT22;71284;50.918;7.092;2024-01-15T11:47:02;4.30;63.20
81842;DHT22;71284;50.918;7.092;2024-01-15T11:49:52;4.40;63.10
81842;DHT22;71284;50.918;7.092;2024-01-15T11:52:12;4.60;63.00
81842;DHT22;71284;50.918;7.092;2024-01-15T11:54:38;4.60;62.80
81842;DHT22;71284;50.918;7.092;2024-01-15T11:57:10;4.50;62.60
81842;DHT22;71284;50.918;7.092;2024-01-15T11:59:34;4.40;62.40
81842;DHT22;71284;50.918;7.092;2024-01-15T12:02:01;4.50;62.70
81842;DHT22;71284;50.918;7.092;2024-01-15T12:04:27;4.40;61.70
81842;DHT22;71284;50.918;7.092;2024-01-15T12:06:54;4.50;62.40
81842;DHT22;71284;50.918;7.092;2024-01-15T12:09:21;4.60;62.10
81842;DHT22;71284;50.918;7.092;2024-01-15T12:11:51;4.80;61.40
81842;DHT22;71284;50.918;7.092;2024-01-15T12:14:14;4.60;61.90
81842;DHT22;71284;50.918;7.092;2024-01-15T12:16:41;4.70;62.20
81842;DHT22;71284;50.918;7.092;2024-01-15T12:19:07;4.80;62.00
81842;DHT22;71284;50.918;7.092;2024-01-15T12:21:34;4.80;61.90
81842;DHT22;71284;50.918;7.092;2024-01-15T12:24:00;4.50;62.00
81842;DHT22;71284;50.918;7.092;2024-01-15T12:26:27;4.70;62.20
81842;DHT22;71284;50.918;7.092;2024-01-15T12:28:54;4.80;61.00
81842;DHT22;71284;50.918;7.092;2024-01-15T12:31:20;4.90;60.80
81842;DHT22;71284;50.918;7.092;2024-01-15T12:33:47;4.80;60.60
81842;DHT22;71284;50.918;7.092;2024-01-15T12:36:13;4.90;62.60
81842;DHT22;71284;50.918;7.092;2024-01-15T12:38:40;5.40;60.90
81842;DHT22;71284;50.918;7.092;2024-01-15T12:41:07;5.60;59.40
81842;DHT22;71284;50.918;7.092;2024-01-15T12:43:33;5.80;59.00
81842;DHT22;71284;50.918;7.092;2024-01-15T12:46:00;5.70;59.00
81842;DHT22;71284;50.918;7.092;2024-01-15T12:48:26;5.70;58.50
81842;DHT22;71284;50.918;7.092;2024-01-15T12:50:53;5.50;58.90
81842;DHT22;71284;50.918;7.092;2024-01-15T12:53:20;5.50;59.40
81842;DHT22;71284;50.918;7.092;2024-01-15T12:55:46;5.50;59.80
81842;DHT22;71284;50.918;7.092;2024-01-15T12:58:13;5.40;60.20
81842;DHT22;71284;50.918;7.092;2024-01-15T13:00:39;5.50;60.60
81842;DHT22;71284;50.918;7.092;2024-01-15T13:03:06;5.20;59.60
81842;DHT22;71284;50.918;7.092;2024-01-15T13:05:32;5.10;60.30
81842;DHT22;71284;50.918;7.092;2024-01-15T13:08:00;5.10;59.70
81842;DHT22;71284;50.918;7.092;2024-01-15T13:10:27;5.20;60.30
81842;DHT22;71284;50.918;7.092;2024-01-15T13:12:53;5.20;59.20
81842;DHT22;71284;50.918;7.092;2024-01-15T13:15:20;5.30;58.80
81842;DHT22;71284;50.918;7.092;2024-01-15T13:17:46;5.30;59.60
81842;DHT22;71284;50.918;7.092;2024-01-15T13:20:13;5.60;57.90
81842;DHT22;71284;50.918;7.092;2024-01-15T13:22:39;5.40;57.90
81842;DHT22;71284;50.918;7.092;2024-01-15T13:25:06;5.50;58.60
81842;DHT22;71284;50.918;7.092;2024-01-15T13:27:34;5.50;57.80
81842;DHT22;71284;50.918;7.092;2024-01-15T13:30:00;5.30;58.30
81842;DHT22;71284;50.918;7.092;2024-01-15T13:32:27;5.00;58.20
81842;DHT22;71284;50.918;7.092;2024-01-15T13:34:56;5.10;58.30
81842;DHT22;71284;50.918;7.092;2024-01-15T13:37:23;5.00;58.30
81842;DHT22;71284;50.918;7.092;2024-01-15T13:39:50;5.00;57.90
81842;DHT22;71284;50.918;7.092;2024-01-15T13:42:19;5.10;58.20
81842;DHT22;71284;50.918;7.092;2024-01-15T13:44:46;5.10;58.70
81842;DHT22;71284;50.918;7.092;2024-01-15T13:47:12;5.00;58.30
81842;DHT22;71284;50.918;7.092;2024-01-15T13:49:39;5.20;58.40
81842;DHT22;71284;50.918;7.092;2024-01-15T13:52:05;5.30;58.30
81842;DHT22;71284;50.918;7.092;2024-01-15T13:54:32;5.10;59.20
81842;DHT22;71284;50.918;7.092;2024-01-15T13:56:59;5.10;59.10
81842;DHT22;71284;50.918;7.092;2024-01-15T13:59:25;5.10;58.20
81842;DHT22;71284;50.918;7.092;2024-01-15T14:01:52;5.10;59.80
81842;DHT22;71284;50.918;7.092;2024-01-15T14:04:18;5.20;59.00
81842;DHT22;71284;50.918;7.092;2024-01-15T14:06:45;4.90;59.50
81842;DHT22;71284;50.918;7.092;2024-01-15T14:09:11;5.10;58.70
81842;DHT22;71284;50.918;7.092;2024-01-15T14:11:38;4.90;58.60
81842;DHT22;71284;50.918;7.092;2024-01-15T14:14:05;4.60;60.30
81842;DHT22;71284;50.918;7.092;2024-01-15T14:16:31;4.50;60.00
81842;DHT22;71284;50.918;7.092;2024-01-15T14:18:58;4.40;60.30
81842;DHT22;71284;50.918;7.092;2024-01-15T14:21:24;4.30;60.90
81842;DHT22;71284;50.918;7.092;2024-01-15T14:23:51;4.50;61.30
81842;DHT22;71284;50.918;7.092;2024-01-15T14:26:18;4.40;61.90
81842;DHT22;71284;50.918;7.092;2024-01-15T14:28:44;4.40;61.40
81842;DHT22;71284;50.918;7.092;2024-01-15T14:31:11;4.50;61.80
81842;DHT22;71284;50.918;7.092;2024-01-15T14:33:37;4.50;61.00
81842;DHT22;71284;50.918;7.092;2024-01-15T14:36:04;4.40;61.40
81842;DHT22;71284;50.918;7.092;2024-01-15T14:38:31;4.40;61.80
81842;DHT22;71284;50.918;7.092;2024-01-15T14:40:57;4.40;60.30
81842;DHT22;71284;50.918;7.092;2024-01-15T14:43:24;4.40;61.10
81842;DHT22;71284;50.918;7.092;2024-01-15T14:45:50;4.40;61.20
81842;DHT22;71284;50.918;7.092;2024-01-15T14:48:17;4.30;61.20
81842;DHT22;71284;50.918;7.092;2024-01-15T14:50:44;4.40;61.00
81842;DHT22;71284;50.918;7.092;2024-01-15T14:53:10;4.40;60.60
81842;DHT22;71284;50.918;7.092;2024-01-15T14:55:37;4.30;60.90
81842;DHT22;71284;50.918;7.092;2024-01-15T14:58:03;4.40;61.30
81842;DHT22;71284;50.918;7.092;2024-01-15T15:00:30;4.40;60.50
81842;DHT22;71284;50.918;7.092;2024-01-15T15:02:57;4.30;61.40
81842;DHT22;71284;50.918;7.092;2024-01-15T15:05:23;4.40;60.90
81842;DHT22;71284;50.918;7.092;2024-01-15T15:07:50;4.60;60.80
81842;DHT22;71284;50.918;7.092;2024-01-15T15:10:17;4.70;59.90
81842;DHT22;71284;50.918;7.092;2024-01-15T15:12:43;4.60;60.00
81842;DHT22;71284;50.918;7.092;2024-01-15T15:15:10;4.50;60.40
81842;DHT22;71284;50.918;7.092;2024-01-15T15:17:37;4.50;60.20
81842;DHT22;71284;50.918;7.092;2024-01-15T15:20:04;4.50;60.00
81842;DHT22;71284;50.918;7.092;2024-01-15T15:22:30;4.60;59.90
81842;DHT22;71284;50.918;7.092;2024-01-15T15:24:56;4.60;59.70
81842;DHT22;71284;50.918;7.092;2024-01-15T15:27:23;4.60;60.80
81842;DHT22;71284;50.918;7.092;2024-01-15T15:29:49;4.50;60.30
81842;DHT22;71284;50.918;7.092;2024-01-15T15:32:16;4.50;60.20
81842;DHT22;71284;50.918;7.092;2024-01-15T15:34:42;4.70;60.80
81842;DHT22;71284;50.918;7.092;2024-01-15T15:37:09;4.60;60.20
81842;DHT22;71284;50.918;7.092;2024-01-15T15:39:36;4.80;59.60
81842;DHT22;71284;50.918;7.092;2024-01-15T15:42:02;4.80;60.10
81842;DHT22;71284;50.918;7.092;2024-01-15T15:44:29;4.80;59.50